sensor_id;sensor_type;location;lat;lon;timestamp;pressure;altitude;pressure_sealevel;temperature;humidity
73267;BME280;61495;53.400;7.608;2023-11-18T00:02:15;102382.69;;;1.73;100.00
73267;BME280;61495;53.400;7.608;2023-11-18T00:04:41;102378.88;;;1.77;100.00
73267;BME280;61495;53.400;7.608;2023-11-18T00:07:06;102375.06;;;1.81;100.00
73267;BME280;61495;53.400;7.608;2023-11-18T00:09:31;102372.44;;;1.81;100.00
73267;BME280;61495;53.400;7.608;2023-11-18T00:11:57;102362.59;;;1.83;100.00
73267;BME280;61495;53.400;7.608;2023-11-18T00:14:22;102361.50;;;1.85;100.00
73267;BME280;61495;53.400;7.608;2023-11-18T00:16:48;102362.97;;;1.89;100.00
73267;BME280;61495;53.400;7.608;2023-11-18T00:19:13;102372.47;;;1.92;100.00
73267;BME280;61495;53.400;7.608;2023-11-18T00:21:39;102373.19;;;1.94;100.00
73267;BME280;61495;53.400;7.608;2023-11-18T00:24:04;102373.94;;;1.96;100.00
73267;BME280;61495;53.400;7.608;2023-11-18T00:26:30;102369.25;;;1.99;100.00
73267;BME280;61495;53.400;7.608;2023-11-18T00:28:56;102370.72;;;2.03;100.00
73267;BME280;61495;53.400;7.608;2023-11-18T00:31:21;102370.63;;;2.05;100.00
73267;BME280;61495;53.400;7.608;2023-11-18T00:33:46;102364.38;;;2.06;100.00
73267;BME280;61495;53.400;7.608;2023-11-18T00:36:12;102370.13;;;2.11;100.00
73267;BME280;61495;53.400;7.608;2023-11-18T00:38:37;102370.03;;;2.12;100.00
73267;BME280;61495;53.400;7.608;2023-11-18T00:41:03;102378.59;;;2.16;100.00
73267;BME280;61495;53.400;7.608;2023-11-18T00:43:30;102380.16;;;2.18;100.00
73267;BME280;61495;53.400;7.608;2023-11-18T00:45:56;102380.03;;;2.20;100.00
73267;BME280;61495;53.400;7.608;2023-11-18T00:48:24;102376.13;;;2.26;100.00
73267;BME280;61495;53.400;7.608;2023-11-18T00:50:50;102375.97;;;2.27;100.00
73267;BME280;61495;53.400;7.608;2023-11-18T00:53:17;102378.41;;;2.30;100.00
73267;BME280;61495;53.400;7.608;2023-11-18T00:55:42;102373.59;;;2.35;100.00
73267;BME280;61495;53.400;7.608;2023-11-18T00:58:08;102374.34;;;2.37;100.00
73267;BME280;61495;53.400;7.608;2023-11-18T01:00:33;102373.25;;;2.40;100.00
73267;BME280;61495;53.400;7.608;2023-11-18T01:02:59;102377.47;;;2.42;100.00
73267;BME280;61495;53.400;7.608;2023-11-18T01:05:24;102367.75;;;2.43;100.00
73267;BME280;61495;53.400;7.608;2023-11-18T01:07:50;102375.31;;;2.47;100.00
73267;BME280;61495;53.400;7.608;2023-11-18T01:10:15;102376.78;;;2.51;100.00
73267;BME280;61495;53.400;7.608;2023-11-18T01:12:41;102378.72;;;2.49;100.00
73267;BME280;61495;53.400;7.608;2023-11-18T01:15:07;102369.78;;;2.50;100.00
73267;BME280;61495;53.400;7.608;2023-11-18T01:17:35;102372.09;;;2.55;100.00
73267;BME280;61495;53.400;7.608;2023-11-18T01:20:01;102383.28;;;2.58;100.00
73267;BME280;61495;53.400;7.608;2023-11-18T01:22:31;102382.22;;;2.61;100.00
73267;BME280;61495;53.400;7.608;2023-11-18T01:24:56;102388.31;;;2.61;100.00
73267;BME280;61495;53.400;7.608;2023-11-18T01:27:23;102383.66;;;2.65;100.00
73267;BME280;61495;53.400;7.608;2023-11-18T01:29:48;102388.69;;;2.68;100.00
73267;BME280;61495;53.400;7.608;2023-11-18T01:32:14;102386.81;;;2.70;100.00
73267;BME280;61495;53.400;7.608;2023-11-18T01:34:39;102381.38;;;2.71;100.00
73267;BME280;61495;53.400;7.608;2023-11-18T01:37:07;102377.53;;;2.75;100.00
73267;BME280;61495;53.400;7.608;2023-11-18T01:39:34;102379.09;;;2.78;100.00
73267;BME280;61495;53.400;7.608;2023-11-18T01:41:59;102376.31;;;2.79;100.00
73267;BME280;61495;53.400;7.608;2023-11-18T01:44:25;102371.78;;;2.82;100.00
73267;BME280;61495;53.400;7.608;2023-11-18T01:46:56;102376.00;;;2.84;100.00
73267;BME280;61495;53.400;7.608;2023-11-18T01:49:22;102370.56;;;2.86;100.00
73267;BME280;61495;53.400;7.608;2023-11-18T01:51:50;102371.41;;;2.86;100.00
73267;BME280;61495;53.400;7.608;2023-11-18T01:54:16;102371.16;;;2.89;100.00
73267;BME280;61495;53.400;7.608;2023-11-18T01:56:46;102365.88;;;2.89;100.00
73267;BME280;61495;53.400;7.608;2023-11-18T01:59:12;102370.09;;;2.92;100.00
73267;BME280;61495;53.400;7.608;2023-11-18T02:01:46;102373.47;;;2.94;100.00
73267;BME280;61495;53.400;7.608;2023-11-18T02:04:14;102376.00;;;2.95;100.00
73267;BME280;61495;53.400;7.608;2023-11-18T02:06:39;102374.06;;;2.97;100.00
73267;BME280;61495;53.400;7.608;2023-11-18T02:09:05;102379.09;;;3.00;100.00
73267;BME280;61495;53.400;7.608;2023-11-18T02:11:53;102381.66;;;3.02;100.00
73267;BME280;61495;53.400;7.608;2023-11-18T02:14:20;102383.34;;;3.03;100.00
73267;BME280;61495;53.400;7.608;2023-11-18T02:16:48;102373.47;;;3.05;100.00
73267;BME280;61495;53.400;7.608;2023-11-18T02:19:20;102369.03;;;3.05;100.00
73267;BME280;61495;53.400;7.608;2023-11-18T02:21:47;102374.19;;;3.07;100.00
73267;BME280;61495;53.400;7.608;2023-11-18T02:24:31;102375.03;;;3.07;100.00
73267;BME280;61495;53.400;7.608;2023-11-18T02:27:05;102379.25;;;3.10;100.00
73267;BME280;61495;53.400;7.608;2023-11-18T02:29:39;102377.56;;;3.09;100.00
73267;BME280;61495;53.400;7.608;2023-11-18T02:32:31;102374.66;;;3.12;100.00
73267;BME280;61495;53.400;7.608;2023-11-18T02:35:12;102363.13;;;3.13;100.00
73267;BME280;61495;53.400;7.608;2023-11-18T02:37:50;102366.59;;;3.13;100.00
73267;BME280;61495;53.400;7.608;2023-11-18T02:40:19;102370.09;;;3.14;100.00
73267;BME280;61495;53.400;7.608;2023-11-18T02:42:45;102369.13;;;3.15;100.00
73267;BME280;61495;53.400;7.608;2023-11-18T02:45:13;102370.94;;;3.14;100.00
73267;BME280;61495;53.400;7.608;2023-11-18T02:47:44;102367.22;;;3.17;100.00
73267;BME280;61495;53.400;7.608;2023-11-18T02:50:09;102366.38;;;3.16;100.00
73267;BME280;61495;53.400;7.608;2023-11-18T02:52:39;102367.22;;;3.17;100.00
73267;BME280;61495;53.400;7.608;2023-11-18T02:55:07;102368.88;;;3.18;100.00
73267;BME280;61495;53.400;7.608;2023-11-18T02:57:37;102370.72;;;3.17;100.00
73267;BME280;61495;53.400;7.608;2023-11-18T03:00:06;102373.94;;;3.21;100.00
73267;BME280;61495;53.400;7.608;2023-11-18T03:02:37;102366.00;;;3.21;100.00
73267;BME280;61495;53.400;7.608;2023-11-18T03:05:06;102372.28;;;3.20;100.00
73267;BME280;61495;53.400;7.608;2023-11-18T03:07:32;102365.03;;;3.22;100.00
73267;BME280;61495;53.400;7.608;2023-11-18T03:09:57;102359.75;;;3.22;100.00
73267;BME280;61495;53.400;7.608;2023-11-18T03:12:23;102358.66;;;3.24;100.00
73267;BME280;61495;53.400;7.608;2023-11-18T03:14:52;102358.78;;;3.23;100.00
73267;BME280;61495;53.400;7.608;2023-11-18T03:17:18;102357.94;;;3.22;100.00
73267;BME280;61495;53.400;7.608;2023-11-18T03:19:45;102357.09;;;3.22;100.00
73267;BME280;61495;53.400;7.608;2023-11-18T03:22:10;102358.03;;;3.21;100.00
73267;BME280;61495;53.400;7.608;2023-11-18T03:24:38;102360.44;;;3.24;100.00
73267;BME280;61495;53.400;7.608;2023-11-18T03:27:03;102365.03;;;3.22;100.00
73267;BME280;61495;53.400;7.608;2023-11-18T03:29:29;102365.75;;;3.24;100.00
73267;BME280;61495;53.400;7.608;2023-11-18T03:31:54;102352.50;;;3.24;100.00
73267;BME280;61495;53.400;7.608;2023-11-18T03:34:19;102355.16;;;3.24;100.00
73267;BME280;61495;53.400;7.608;2023-11-18T03:36:48;102363.84;;;3.26;100.00
73267;BME280;61495;53.400;7.608;2023-11-18T03:39:13;102355.03;;;3.25;100.00
73267;BME280;61495;53.400;7.608;2023-11-18T03:41:40;102356.75;;;3.26;100.00
73267;BME280;61495;53.400;7.608;2023-11-18T03:44:05;102348.78;;;3.26;100.00
73267;BME280;61495;53.400;7.608;2023-11-18T03:46:31;102350.59;;;3.26;100.00
73267;BME280;61495;53.400;7.608;2023-11-18T03:49:00;102348.78;;;3.26;100.00
73267;BME280;61495;53.400;7.608;2023-11-18T03:51:26;102340.72;;;3.28;100.00
73267;BME280;61495;53.400;7.608;2023-11-18T03:53:51;102339.75;;;3.29;100.00
73267;BME280;61495;53.400;7.608;2023-11-18T03:56:17;102337.13;;;3.29;100.00
73267;BME280;61495;53.400;7.608;2023-11-18T03:58:46;102337.13;;;3.29;100.00
73267;BME280;61495;53.400;7.608;2023-11-18T04:03:46;102328.19;;;3.30;100.00
73267;BME280;61495;53.400;7.608;2023-11-18T04:06:12;102320.25;;;3.30;100.00
73267;BME280;61495;53.400;7.608;2023-11-18T04:08:42;102322.88;;;3.30;100.00
73267;BME280;61495;53.400;7.608;2023-11-18T04:11:07;102328.19;;;3.30;100.00
73267;BME280;61495;53.400;7.608;2023-11-18T04:13:32;102319.41;;;3.29;100.00
73267;BME280;61495;53.400;7.608;2023-11-18T04:15:58;102309.78;;;3.28;100.00
73267;BME280;61495;53.400;7.608;2023-11-18T04:18:23;102309.78;;;3.28;100.00
73267;BME280;61495;53.400;7.608;2023-11-18T04:20:49;102306.19;;;3.29;100.00
73267;BME280;61495;53.400;7.608;2023-11-18T04:23:14;102300.03;;;3.29;100.00
73267;BME280;61495;53.400;7.608;2023-11-18T04:25:40;102300.03;;;3.29;100.00
73267;BME280;61495;53.400;7.608;2023-11-18T04:28:05;102294.75;;;3.29;100.00
73267;BME280;61495;53.400;7.608;2023-11-18T04:30:30;102302.69;;;3.29;100.00
73267;BME280;61495;53.400;7.608;2023-11-18T04:32:56;102294.75;;;3.29;100.00
73267;BME280;61495;53.400;7.608;2023-11-18T04:35:21;102294.75;;;3.29;100.00
73267;BME280;61495;53.400;7.608;2023-11-18T04:37:47;102294.75;;;3.29;100.00
73267;BME280;61495;53.400;7.608;2023-11-18T04:40:13;102294.75;;;3.29;100.00
73267;BME280;61495;53.400;7.608;2023-11-18T04:42:39;102288.59;;;3.28;100.00
73267;BME280;61495;53.400;7.608;2023-11-18T04:45:05;102274.66;;;3.26;100.00
73267;BME280;61495;53.400;7.608;2023-11-18T04:47:31;102273.66;;;3.27;100.00
73267;BME280;61495;53.400;7.608;2023-11-18T04:49:56;102274.66;;;3.26;100.00
73267;BME280;61495;53.400;7.608;2023-11-18T04:52:22;102279.94;;;3.26;100.00
73267;BME280;61495;53.400;7.608;2023-11-18T04:54:47;102276.44;;;3.26;100.00
73267;BME280;61495;53.400;7.608;2023-11-18T04:57:13;102276.44;;;3.26;100.00
73267;BME280;61495;53.400;7.608;2023-11-18T04:59:39;102274.66;;;3.26;100.00
73267;BME280;61495;53.400;7.608;2023-11-18T05:02:04;102279.81;;;3.28;100.00
73267;BME280;61495;53.400;7.608;2023-11-18T05:04:31;102274.66;;;3.26;100.00
73267;BME280;61495;53.400;7.608;2023-11-18T05:06:56;102276.44;;;3.26;100.00
73267;BME280;61495;53.400;7.608;2023-11-18T05:09:22;102277.16;;;3.28;100.00
73267;BME280;61495;53.400;7.608;2023-11-18T05:11:47;102274.50;;;3.28;100.00
73267;BME280;61495;53.400;7.608;2023-11-18T05:14:13;102266.56;;;3.28;100.00
73267;BME280;61495;53.400;7.608;2023-11-18T05:16:39;102270.16;;;3.27;100.00
73267;BME280;61495;53.400;7.608;2023-11-18T05:19:04;102255.97;;;3.28;100.00
73267;BME280;61495;53.400;7.608;2023-11-18T05:21:30;102264.88;;;3.27;100.00
73267;BME280;61495;53.400;7.608;2023-11-18T05:23:55;102255.97;;;3.28;100.00
73267;BME280;61495;53.400;7.608;2023-11-18T05:26:22;102258.63;;;3.28;100.00
73267;BME280;61495;53.400;7.608;2023-11-18T05:28:47;102263.81;;;3.29;100.00
73267;BME280;61495;53.400;7.608;2023-11-18T05:31:15;102257.66;;;3.29;100.00
73267;BME280;61495;53.400;7.608;2023-11-18T05:33:41;102257.66;;;3.29;100.00
73267;BME280;61495;53.400;7.608;2023-11-18T05:36:08;102251.53;;;3.28;100.00
73267;BME280;61495;53.400;7.608;2023-11-18T05:38:33;102262.97;;;3.29;100.00
73267;BME280;61495;53.400;7.608;2023-11-18T05:41:00;102261.28;;;3.28;100.00
73267;BME280;61495;53.400;7.608;2023-11-18T05:43:30;102260.31;;;3.29;100.00
73267;BME280;61495;53.400;7.608;2023-11-18T05:46:02;102268.38;;;3.27;100.00
73267;BME280;61495;53.400;7.608;2023-11-18T05:48:47;102271.88;;;3.28;100.00
73267;BME280;61495;53.400;7.608;2023-11-18T05:51:12;102270.16;;;3.27;100.00
73267;BME280;61495;53.400;7.608;2023-11-18T05:53:42;102262.38;;;3.25;100.00
73267;BME280;61495;53.400;7.608;2023-11-18T05:56:10;102262.38;;;3.25;100.00
73267;BME280;61495;53.400;7.608;2023-11-18T05:58:36;102257.19;;;3.24;100.00
73267;BME280;61495;53.400;7.608;2023-11-18T06:01:02;102269.59;;;3.23;100.00
73267;BME280;61495;53.400;7.608;2023-11-18T06:03:27;102274.06;;;3.23;100.00
73267;BME280;61495;53.400;7.608;2023-11-18T06:05:52;102272.34;;;3.22;100.00
73267;BME280;61495;53.400;7.608;2023-11-18T06:08:18;102272.75;;;3.17;100.00
73267;BME280;61495;53.400;7.608;2023-11-18T06:10:43;102270.19;;;3.16;100.00
73267;BME280;61495;53.400;7.608;2023-11-18T06:13:11;102267.56;;;3.16;100.00
73267;BME280;61495;53.400;7.608;2023-11-18T06:15:38;102267.56;;;3.16;100.00
73267;BME280;61495;53.400;7.608;2023-11-18T06:18:04;102269.25;;;3.17;100.00
73267;BME280;61495;53.400;7.608;2023-11-18T06:20:30;102272.84;;;3.16;100.00
73267;BME280;61495;53.400;7.608;2023-11-18T06:22:56;102275.50;;;3.16;100.00
73267;BME280;61495;53.400;7.608;2023-11-18T06:25:22;102280.09;;;3.14;100.00
73267;BME280;61495;53.400;7.608;2023-11-18T06:27:51;102272.38;;;3.11;100.00
73267;BME280;61495;53.400;7.608;2023-11-18T06:30:18;102276.97;;;3.09;100.00
73267;BME280;61495;53.400;7.608;2023-11-18T06:32:45;102279.13;;;3.04;100.00
73267;BME280;61495;53.400;7.608;2023-11-18T06:35:12;102268.53;;;3.04;100.00
73267;BME280;61495;53.400;7.608;2023-11-18T06:37:40;102263.25;;;3.04;100.00
73267;BME280;61495;53.400;7.608;2023-11-18T06:40:06;102267.81;;;3.02;100.00
73267;BME280;61495;53.400;7.608;2023-11-18T06:42:44;102251.25;;;3.00;100.00
73267;BME280;61495;53.400;7.608;2023-11-18T06:45:12;102246.06;;;2.98;100.00
73267;BME280;61495;53.400;7.608;2023-11-18T06:47:38;102239.19;;;2.96;100.00
73267;BME280;61495;53.400;7.608;2023-11-18T06:50:09;102247.00;;;2.97;100.00
73267;BME280;61495;53.400;7.608;2023-11-18T06:52:37;102246.19;;;2.97;100.00
73267;BME280;61495;53.400;7.608;2023-11-18T06:55:04;102252.44;;;2.96;100.00
73267;BME280;61495;53.400;7.608;2023-11-18T06:57:29;102251.72;;;2.94;100.00
73267;BME280;61495;53.400;7.608;2023-11-18T06:59:55;102252.69;;;2.93;100.00
73267;BME280;61495;53.400;7.608;2023-11-18T07:02:20;102248.34;;;2.92;100.00
73267;BME280;61495;53.400;7.608;2023-11-18T07:04:46;102241.38;;;2.91;100.00
73267;BME280;61495;53.400;7.608;2023-11-18T07:07:11;102244.97;;;2.90;100.00
73267;BME280;61495;53.400;7.608;2023-11-18T07:09:38;102246.69;;;2.91;100.00
73267;BME280;61495;53.400;7.608;2023-11-18T07:12:04;102240.66;;;2.89;100.00
73267;BME280;61495;53.400;7.608;2023-11-18T07:14:30;102246.94;;;2.88;100.00
73267;BME280;61495;53.400;7.608;2023-11-18T07:16:55;102241.75;;;2.86;100.00
73267;BME280;61495;53.400;7.608;2023-11-18T07:19:21;102240.78;;;2.87;100.00
73267;BME280;61495;53.400;7.608;2023-11-18T07:21:47;102246.94;;;2.88;100.00
73267;BME280;61495;53.400;7.608;2023-11-18T07:24:13;102252.22;;;2.88;100.00
73267;BME280;61495;53.400;7.608;2023-11-18T07:26:38;102245.94;;;2.89;100.00
73267;BME280;61495;53.400;7.608;2023-11-18T07:29:04;102239.94;;;2.87;100.00
73267;BME280;61495;53.400;7.608;2023-11-18T07:31:29;102245.94;;;2.89;100.00
73267;BME280;61495;53.400;7.608;2023-11-18T07:33:54;102245.94;;;2.89;100.00
73267;BME280;61495;53.400;7.608;2023-11-18T07:36:21;102251.22;;;2.89;100.00
73267;BME280;61495;53.400;7.608;2023-11-18T07:38:47;102246.44;;;2.94;100.00
73267;BME280;61495;53.400;7.608;2023-11-18T07:41:12;102236.09;;;2.91;100.00
73267;BME280;61495;53.400;7.608;2023-11-18T07:43:52;102228.88;;;2.93;100.00
73267;BME280;61495;53.400;7.608;2023-11-18T07:46:24;102228.88;;;2.93;100.00
73267;BME280;61495;53.400;7.608;2023-11-18T07:48:51;102222.88;;;2.91;100.00
73267;BME280;61495;53.400;7.608;2023-11-18T07:51:21;102225.25;;;2.94;100.00
73267;BME280;61495;53.400;7.608;2023-11-18T07:53:50;102221.75;;;3.04;100.00
73267;BME280;61495;53.400;7.608;2023-11-18T07:56:16;102234.63;;;3.09;100.00
73267;BME280;61495;53.400;7.608;2023-11-18T07:58:44;102239.06;;;3.08;100.00
73267;BME280;61495;53.400;7.608;2023-11-18T08:01:14;102245.44;;;3.06;100.00
73267;BME280;61495;53.400;7.608;2023-11-18T08:03:41;102242.06;;;3.04;100.00
73267;BME280;61495;53.400;7.608;2023-11-18T08:06:07;102243.88;;;3.03;100.00
73267;BME280;61495;53.400;7.608;2023-11-18T08:08:35;102235.13;;;3.03;100.00
73267;BME280;61495;53.400;7.608;2023-11-18T08:11:09;102236.78;;;3.04;100.00
73267;BME280;61495;53.400;7.608;2023-11-18T08:13:35;102240.41;;;3.03;100.00
73267;BME280;61495;53.400;7.608;2023-11-18T08:16:00;102240.41;;;3.03;100.00
73267;BME280;61495;53.400;7.608;2023-11-18T08:18:26;102237.75;;;3.03;100.00
73267;BME280;61495;53.400;7.608;2023-11-18T08:20:53;102238.56;;;3.03;100.00
73267;BME280;61495;53.400;7.608;2023-11-18T08:23:18;102243.63;;;3.06;100.00
73267;BME280;61495;53.400;7.608;2023-11-18T08:25:44;102237.38;;;3.07;100.00
73267;BME280;61495;53.400;7.608;2023-11-18T08:28:11;102243.50;;;3.08;100.00
73267;BME280;61495;53.400;7.608;2023-11-18T08:30:38;102228.47;;;3.08;100.00
73267;BME280;61495;53.400;7.608;2023-11-18T08:33:04;102230.03;;;3.11;100.00
73267;BME280;61495;53.400;7.608;2023-11-18T08:35:35;102220.16;;;3.13;100.00
73267;BME280;61495;53.400;7.608;2023-11-18T08:38:00;102206.91;;;3.13;100.00
73267;BME280;61495;53.400;7.608;2023-11-18T08:40:26;102198.00;;;3.14;100.00
73267;BME280;61495;53.400;7.608;2023-11-18T08:42:52;102194.38;;;3.15;100.00
73267;BME280;61495;53.400;7.608;2023-11-18T08:45:22;102187.28;;;3.15;100.00
73267;BME280;61495;53.400;7.608;2023-11-18T08:47:53;102180.88;;;3.18;100.00
73267;BME280;61495;53.400;7.608;2023-11-18T08:50:18;102168.63;;;3.17;100.00
73267;BME280;61495;53.400;7.608;2023-11-18T08:52:45;102172.94;;;3.18;100.00
73267;BME280;61495;53.400;7.608;2023-11-18T08:55:16;102178.72;;;3.23;100.00
73267;BME280;61495;53.400;7.608;2023-11-18T08:57:48;102172.44;;;3.24;100.00
73267;BME280;61495;53.400;7.608;2023-11-18T09:00:18;102164.25;;;3.27;100.00
73267;BME280;61495;53.400;7.608;2023-11-18T09:03:02;102162.06;;;3.32;100.00
73267;BME280;61495;53.400;7.608;2023-11-18T09:05:31;102167.50;;;3.51;100.00
73267;BME280;61495;53.400;7.608;2023-11-18T09:07:58;102175.72;;;3.48;100.00
73267;BME280;61495;53.400;7.608;2023-11-18T09:10:26;102168.25;;;3.74;100.00
73267;BME280;61495;53.400;7.608;2023-11-18T09:12:51;102170.25;;;4.91;100.00
73267;BME280;61495;53.400;7.608;2023-11-18T09:15:18;102167.31;;;5.71;100.00
73267;BME280;61495;53.400;7.608;2023-11-18T09:17:48;102158.56;;;6.17;100.00
73267;BME280;61495;53.400;7.608;2023-11-18T09:20:14;102151.06;;;6.57;100.00
73267;BME280;61495;53.400;7.608;2023-11-18T09:22:43;102140.66;;;7.09;100.00
73267;BME280;61495;53.400;7.608;2023-11-18T09:25:09;102136.41;;;7.59;100.00
73267;BME280;61495;53.400;7.608;2023-11-18T09:27:36;102133.16;;;7.73;100.00
73267;BME280;61495;53.400;7.608;2023-11-18T09:30:01;102135.69;;;8.34;100.00
73267;BME280;61495;53.400;7.608;2023-11-18T09:32:27;102135.19;;;8.73;100.00
73267;BME280;61495;53.400;7.608;2023-11-18T09:34:53;102135.94;;;9.07;100.00
73267;BME280;61495;53.400;7.608;2023-11-18T09:37:18;102136.28;;;9.44;100.00
73267;BME280;61495;53.400;7.608;2023-11-18T09:39:43;102133.25;;;9.47;98.27
73267;BME280;61495;53.400;7.608;2023-11-18T09:42:12;102132.78;;;9.52;93.75
73267;BME280;61495;53.400;7.608;2023-11-18T09:44:39;102140.94;;;9.50;89.52
73267;BME280;61495;53.400;7.608;2023-11-18T09:47:07;102140.63;;;9.70;85.38
73267;BME280;61495;53.400;7.608;2023-11-18T09:49:42;102142.59;;;10.00;82.00
73267;BME280;61495;53.400;7.608;2023-11-18T09:52:15;102136.88;;;10.03;81.82
73267;BME280;61495;53.400;7.608;2023-11-18T09:55:02;102130.81;;;10.25;80.09
73267;BME280;61495;53.400;7.608;2023-11-18T09:57:32;102133.09;;;10.36;80.37
73267;BME280;61495;53.400;7.608;2023-11-18T10:00:07;102135.59;;;10.46;79.21
73267;BME280;61495;53.400;7.608;2023-11-18T10:02:45;102125.81;;;10.61;78.40
73267;BME280;61495;53.400;7.608;2023-11-18T10:05:12;102122.84;;;10.79;79.10
73267;BME280;61495;53.400;7.608;2023-11-18T10:07:42;102117.84;;;10.76;78.09
73267;BME280;61495;53.400;7.608;2023-11-18T10:10:08;102108.16;;;10.97;78.04
73267;BME280;61495;53.400;7.608;2023-11-18T10:12:43;102101.44;;;11.01;77.20
73267;BME280;61495;53.400;7.608;2023-11-18T10:15:21;102098.56;;;11.03;77.91
73267;BME280;61495;53.400;7.608;2023-11-18T10:17:52;102097.84;;;11.09;77.55
73267;BME280;61495;53.400;7.608;2023-11-18T10:20:23;102091.16;;;11.28;76.22
73267;BME280;61495;53.400;7.608;2023-11-18T10:23:09;102085.97;;;11.63;73.87
73267;BME280;61495;53.400;7.608;2023-11-18T10:25:56;102080.97;;;11.60;74.92
73267;BME280;61495;53.400;7.608;2023-11-18T10:31:03;102069.81;;;11.72;74.00
73267;BME280;61495;53.400;7.608;2023-11-18T10:33:39;102067.78;;;11.74;73.61
73267;BME280;61495;53.400;7.608;2023-11-18T10:36:17;102074.66;;;12.05;73.13
73267;BME280;61495;53.400;7.608;2023-11-18T10:38:48;102060.63;;;12.10;72.05
73267;BME280;61495;53.400;7.608;2023-11-18T10:41:18;102041.94;;;12.02;73.52
73267;BME280;61495;53.400;7.608;2023-11-18T10:43:43;102053.88;;;12.14;72.27
73267;BME280;61495;53.400;7.608;2023-11-18T10:46:11;102045.00;;;12.13;72.29
73267;BME280;61495;53.400;7.608;2023-11-18T10:48:50;102049.03;;;12.24;72.06
73267;BME280;61495;53.400;7.608;2023-11-18T10:51:20;102041.34;;;12.21;72.07
73267;BME280;61495;53.400;7.608;2023-11-18T10:53:51;102030.69;;;12.27;72.29
73267;BME280;61495;53.400;7.608;2023-11-18T10:56:46;102031.28;;;12.23;71.41
73267;BME280;61495;53.400;7.608;2023-11-18T10:59:12;102019.56;;;12.31;72.06
73267;BME280;61495;53.400;7.608;2023-11-18T11:01:42;102009.72;;;12.38;71.95
73267;BME280;61495;53.400;7.608;2023-11-18T11:04:11;102007.94;;;12.45;70.94
73267;BME280;61495;53.400;7.608;2023-11-18T11:06:41;102001.16;;;12.49;70.42
73267;BME280;61495;53.400;7.608;2023-11-18T11:09:08;101991.88;;;12.51;70.51
73267;BME280;61495;53.400;7.608;2023-11-18T11:11:57;101992.59;;;12.60;70.02
73267;BME280;61495;53.400;7.608;2023-11-18T11:14:43;102004.94;;;12.54;70.15
73267;BME280;61495;53.400;7.608;2023-11-18T11:17:13;101996.63;;;12.49;73.02
73267;BME280;61495;53.400;7.608;2023-11-18T11:20:05;101985.56;;;12.59;71.02
73267;BME280;61495;53.400;7.608;2023-11-18T11:28:20;101967.31;;;12.75;69.58
73267;BME280;61495;53.400;7.608;2023-11-18T11:30:50;101961.78;;;12.83;68.63
73267;BME280;61495;53.400;7.608;2023-11-18T11:33:33;101966.22;;;12.70;69.15
73267;BME280;61495;53.400;7.608;2023-11-18T11:36:07;101951.31;;;12.67;69.58
73267;BME280;61495;53.400;7.608;2023-11-18T11:38:37;101953.34;;;12.65;71.46
73267;BME280;61495;53.400;7.608;2023-11-18T11:41:04;101953.78;;;12.90;71.78
73267;BME280;61495;53.400;7.608;2023-11-18T11:43:31;101948.69;;;13.02;72.45
73267;BME280;61495;53.400;7.608;2023-11-18T11:46:01;101963.22;;;13.07;71.43
73267;BME280;61495;53.400;7.608;2023-11-18T11:48:29;101972.44;;;13.19;72.04
73267;BME280;61495;53.400;7.608;2023-11-18T11:54:06;101943.44;;;13.15;68.38
73267;BME280;61495;53.400;7.608;2023-11-18T11:56:48;101937.63;;;13.11;69.48
73267;BME280;61495;53.400;7.608;2023-11-18T12:02:20;101941.78;;;13.14;69.70
73267;BME280;61495;53.400;7.608;2023-11-18T12:04:49;101945.34;;;13.21;68.36
73267;BME280;61495;53.400;7.608;2023-11-18T12:07:23;101943.53;;;13.07;69.06
73267;BME280;61495;53.400;7.608;2023-11-18T12:09:54;101948.22;;;13.19;68.89
73267;BME280;61495;53.400;7.608;2023-11-18T12:12:24;101943.88;;;13.18;68.44
73267;BME280;61495;53.400;7.608;2023-11-18T12:14:54;101934.44;;;12.80;73.36
73267;BME280;61495;53.400;7.608;2023-11-18T12:17:26;101940.63;;;11.96;75.71
73267;BME280;61495;53.400;7.608;2023-11-18T12:19:57;101929.00;;;11.30;78.05
73267;BME280;61495;53.400;7.608;2023-11-18T12:23:04;101918.75;;;10.82;80.64
73267;BME280;61495;53.400;7.608;2023-11-18T12:25:40;101919.53;;;10.30;81.96
73267;BME280;61495;53.400;7.608;2023-11-18T12:28:16;101918.53;;;10.00;83.18
73267;BME280;61495;53.400;7.608;2023-11-18T12:30:43;101910.84;;;9.67;82.87
73267;BME280;61495;53.400;7.608;2023-11-18T12:33:18;101907.28;;;9.35;85.50
73267;BME280;61495;53.400;7.608;2023-11-18T12:41:01;101899.06;;;8.82;87.16
73267;BME280;61495;53.400;7.608;2023-11-18T12:43:46;101901.09;;;8.64;87.38
73267;BME280;61495;53.400;7.608;2023-11-18T12:49:02;101889.59;;;8.31;89.89
73267;BME280;61495;53.400;7.608;2023-11-18T12:51:28;101881.00;;;8.11;89.52
73267;BME280;61495;53.400;7.608;2023-11-18T12:53:56;101885.50;;;8.03;90.64
73267;BME280;61495;53.400;7.608;2023-11-18T12:56:25;101877.31;;;7.88;90.55
73267;BME280;61495;53.400;7.608;2023-11-18T12:58:50;101863.63;;;7.75;91.24
73267;BME280;61495;53.400;7.608;2023-11-18T13:01:16;101857.56;;;7.57;92.01
73267;BME280;61495;53.400;7.608;2023-11-18T13:03:42;101846.53;;;7.52;92.27
73267;BME280;61495;53.400;7.608;2023-11-18T13:06:11;101836.16;;;7.41;93.35
73267;BME280;61495;53.400;7.608;2023-11-18T13:08:40;101830.50;;;7.36;93.46
73267;BME280;61495;53.400;7.608;2023-11-18T13:11:06;101836.94;;;7.25;94.07
73267;BME280;61495;53.400;7.608;2023-11-18T13:13:38;101834.44;;;7.15;95.01
73267;BME280;61495;53.400;7.608;2023-11-18T13:16:04;101820.06;;;7.08;94.87
73267;BME280;61495;53.400;7.608;2023-11-18T13:18:41;101796.06;;;7.00;95.26
73267;BME280;61495;53.400;7.608;2023-11-18T13:21:07;101808.50;;;6.92;95.55
73267;BME280;61495;53.400;7.608;2023-11-18T13:23:32;101808.66;;;6.90;96.21